メインページ
METAR-TAF:

METAR-TAF

空港 :

パルマ・デ・マヨルカ空港

パルマ・デ・マリョルカ, スペイン

緯度: 39-33N, 経度: 002-44E, 海抜: 4m

現時点の気象観測

当レポートは18分前の09:00(UTC)に作成
北東の風 5kt、北西からの間で変化する
気温 28°C
湿度 42%
気圧 1019 hPa
視程10km以上
1,500メートル以下は雲なし、積乱雲なし

METAR: LEPA 200900Z 04005KT 320V080 CAVOK 28/14 Q1019 NOSIG

時間: 11:18 (09:18 UTC)

予報

当レポートは4時間18分前の05:00(UTC)に作成
予報は20日の 06時(UTC)から 21日の 06時(UTC)まで有効
変向風 3kt
視程10km以上
高度3000ftの雲はほとんどない
20日の 10時(UTC)から 20日の 12時(UTC)まで徐々に
南/南西の風 12kt
20日の 17時(UTC)から 20日の 19時(UTC)まで徐々に
変向風 3kt

TAF: LEPA 200500Z 2006/2106 VRB03KT 9999 FEW030 TX31/2014Z TN17/2006Z BECMG 2010/2012 21012KT BECMG 2017/2019 VRB03KT

4,000以上の空港の気象観測と天気予報(METAR報とTAF報)

利用可能な観測所は地図上に黄色い丸と赤い丸で示す。

丸の上にカーソルを重ねると観測所名を参照できる。

次にクリックすると気象観測と天気予報を参照できる。

マップの切り替え:黒色「×」印の緑ボタンをクリックして拡大、「-」印の緑ボタンをクリックして縮小、緑色の三角印をクリックして隣りの地図に切り替え


METAR-TAF: